sensor_id;sensor_type;location;lat;lon;timestamp;P1;P2;P0
38687;PMS5003;24444;53.216;-6.664;2022-11-18T00:01:03;25;22;
38687;PMS5003;24444;53.216;-6.664;2022-11-18T00:03:32;23;20;
38687;PMS5003;24444;53.216;-6.664;2022-11-18T00:05:58;24;20;
38687;PMS5003;24444;53.216;-6.664;2022-11-18T00:08:26;24;23;
38687;PMS5003;24444;53.216;-6.664;2022-11-18T00:10:53;20;19;
38687;PMS5003;24444;53.216;-6.664;2022-11-18T00:13:21;26;24;
38687;PMS5003;24444;53.216;-6.664;2022-11-18T00:15:49;22;21;
38687;PMS5003;24444;53.216;-6.664;2022-11-18T00:18:26;21;20;
38687;PMS5003;24444;53.216;-6.664;2022-11-18T00:20:53;21;21;
38687;PMS5003;24444;53.216;-6.664;2022-11-18T00:23:20;23;22;
38687;PMS5003;24444;53.216;-6.664;2022-11-18T00:25:48;22;20;
38687;PMS5003;24444;53.216;-6.664;2022-11-18T00:28:15;20;19;
38687;PMS5003;24444;53.216;-6.664;2022-11-18T00:30:42;20;17;
38687;PMS5003;24444;53.216;-6.664;2022-11-18T00:33:09;24;20;
38687;PMS5003;24444;53.216;-6.664;2022-11-18T00:35:37;18;18;
38687;PMS5003;24444;53.216;-6.664;2022-11-18T00:38:04;23;20;
38687;PMS5003;24444;53.216;-6.664;2022-11-18T00:40:31;16;16;
38687;PMS5003;24444;53.216;-6.664;2022-11-18T00:42:58;18;17;
38687;PMS5003;24444;53.216;-6.664;2022-11-18T00:45:25;23;20;
38687;PMS5003;24444;53.216;-6.664;2022-11-18T00:47:52;18;18;
38687;PMS5003;24444;53.216;-6.664;2022-11-18T00:50:20;25;25;
38687;PMS5003;24444;53.216;-6.664;2022-11-18T00:52:47;20;19;
38687;PMS5003;24444;53.216;-6.664;2022-11-18T00:55:16;21;18;
38687;PMS5003;24444;53.216;-6.664;2022-11-18T00:57:44;29;24;
38687;PMS5003;24444;53.216;-6.664;2022-11-18T01:00:12;22;22;
38687;PMS5003;24444;53.216;-6.664;2022-11-18T01:02:39;23;21;
38687;PMS5003;24444;53.216;-6.664;2022-11-18T01:07:41;27;25;
38687;PMS5003;24444;53.216;-6.664;2022-11-18T01:10:08;24;20;
38687;PMS5003;24444;53.216;-6.664;2022-11-18T01:12:35;26;22;
38687;PMS5003;24444;53.216;-6.664;2022-11-18T01:15:02;22;22;
38687;PMS5003;24444;53.216;-6.664;2022-11-18T01:17:30;20;18;
38687;PMS5003;24444;53.216;-6.664;2022-11-18T01:19:57;18;17;
38687;PMS5003;24444;53.216;-6.664;2022-11-18T01:22:25;24;22;
38687;PMS5003;24444;53.216;-6.664;2022-11-18T01:24:53;23;21;
38687;PMS5003;24444;53.216;-6.664;2022-11-18T01:27:20;17;16;
38687;PMS5003;24444;53.216;-6.664;2022-11-18T01:29:47;20;20;
38687;PMS5003;24444;53.216;-6.664;2022-11-18T01:32:15;18;17;
38687;PMS5003;24444;53.216;-6.664;2022-11-18T01:34:42;16;16;
38687;PMS5003;24444;53.216;-6.664;2022-11-18T01:37:09;12;12;
38687;PMS5003;24444;53.216;-6.664;2022-11-18T01:39:36;19;18;
38687;PMS5003;24444;53.216;-6.664;2022-11-18T01:42:05;13;11;
38687;PMS5003;24444;53.216;-6.664;2022-11-18T01:45:43;12;12;
38687;PMS5003;24444;53.216;-6.664;2022-11-18T01:48:12;14;12;
38687;PMS5003;24444;53.216;-6.664;2022-11-18T01:50:45;14;12;
38687;PMS5003;24444;53.216;-6.664;2022-11-18T01:53:18;11;11;
38687;PMS5003;24444;53.216;-6.664;2022-11-18T01:55:51;15;15;
38687;PMS5003;24444;53.216;-6.664;2022-11-18T01:58:22;18;11;
38687;PMS5003;24444;53.216;-6.664;2022-11-18T02:00:53;15;12;
38687;PMS5003;24444;53.216;-6.664;2022-11-18T02:03:20;12;10;
38687;PMS5003;24444;53.216;-6.664;2022-11-18T02:05:49;11;11;
38687;PMS5003;24444;53.216;-6.664;2022-11-18T02:08:17;13;10;
38687;PMS5003;24444;53.216;-6.664;2022-11-18T02:10:46;12;12;
38687;PMS5003;24444;53.216;-6.664;2022-11-18T02:13:13;11;11;
38687;PMS5003;24444;53.216;-6.664;2022-11-18T02:15:45;10;9;
38687;PMS5003;24444;53.216;-6.664;2022-11-18T02:18:22;9;8;
38687;PMS5003;24444;53.216;-6.664;2022-11-18T02:21:00;9;7;
38687;PMS5003;24444;53.216;-6.664;2022-11-18T02:23:57;7;6;
38687;PMS5003;24444;53.216;-6.664;2022-11-18T02:26:59;5;5;
38687;PMS5003;24444;53.216;-6.664;2022-11-18T02:29:46;5;4;
38687;PMS5003;24444;53.216;-6.664;2022-11-18T02:32:21;4;4;
38687;PMS5003;24444;53.216;-6.664;2022-11-18T02:34:56;4;3;
38687;PMS5003;24444;53.216;-6.664;2022-11-18T02:37:30;3;3;
38687;PMS5003;24444;53.216;-6.664;2022-11-18T02:40:03;2;2;
38687;PMS5003;24444;53.216;-6.664;2022-11-18T02:42:33;4;3;
38687;PMS5003;24444;53.216;-6.664;2022-11-18T02:45:04;3;3;
38687;PMS5003;24444;53.216;-6.664;2022-11-18T02:47:36;3;2;
38687;PMS5003;24444;53.216;-6.664;2022-11-18T02:50:07;3;3;
38687;PMS5003;24444;53.216;-6.664;2022-11-18T02:52:37;3;3;
38687;PMS5003;24444;53.216;-6.664;2022-11-18T02:55:06;2;2;
38687;PMS5003;24444;53.216;-6.664;2022-11-18T02:57:36;2;2;
38687;PMS5003;24444;53.216;-6.664;2022-11-18T03:00:05;3;2;
38687;PMS5003;24444;53.216;-6.664;2022-11-18T03:02:38;2;2;
38687;PMS5003;24444;53.216;-6.664;2022-11-18T03:05:08;1;1;
38687;PMS5003;24444;53.216;-6.664;2022-11-18T03:07:39;2;1;
38687;PMS5003;24444;53.216;-6.664;2022-11-18T03:10:09;3;3;
38687;PMS5003;24444;53.216;-6.664;2022-11-18T03:12:38;2;1;
38687;PMS5003;24444;53.216;-6.664;2022-11-18T03:15:12;5;3;
38687;PMS5003;24444;53.216;-6.664;2022-11-18T03:17:47;1;1;
38687;PMS5003;24444;53.216;-6.664;2022-11-18T03:20:22;1;1;
38687;PMS5003;24444;53.216;-6.664;2022-11-18T03:22:53;1;1;
38687;PMS5003;24444;53.216;-6.664;2022-11-18T03:25:27;2;1;
38687;PMS5003;24444;53.216;-6.664;2022-11-18T03:28:02;2;1;
38687;PMS5003;24444;53.216;-6.664;2022-11-18T03:30:37;4;3;
38687;PMS5003;24444;53.216;-6.664;2022-11-18T03:33:07;1;1;
38687;PMS5003;24444;53.216;-6.664;2022-11-18T03:35:38;3;2;
38687;PMS5003;24444;53.216;-6.664;2022-11-18T03:38:12;1;1;
38687;PMS5003;24444;53.216;-6.664;2022-11-18T03:40:44;2;1;
38687;PMS5003;24444;53.216;-6.664;2022-11-18T03:43:15;2;1;
38687;PMS5003;24444;53.216;-6.664;2022-11-18T03:45:45;1;1;
38687;PMS5003;24444;53.216;-6.664;2022-11-18T03:48:16;2;1;
38687;PMS5003;24444;53.216;-6.664;2022-11-18T03:50:47;2;2;
38687;PMS5003;24444;53.216;-6.664;2022-11-18T03:53:17;3;2;
38687;PMS5003;24444;53.216;-6.664;2022-11-18T03:55:49;3;2;
38687;PMS5003;24444;53.216;-6.664;2022-11-18T03:58:22;2;2;
38687;PMS5003;24444;53.216;-6.664;2022-11-18T04:00:55;2;2;
38687;PMS5003;24444;53.216;-6.664;2022-11-18T04:03:30;3;2;
38687;PMS5003;24444;53.216;-6.664;2022-11-18T04:05:59;3;1;
38687;PMS5003;24444;53.216;-6.664;2022-11-18T04:08:35;2;2;
38687;PMS5003;24444;53.216;-6.664;2022-11-18T04:11:07;1;1;
38687;PMS5003;24444;53.216;-6.664;2022-11-18T04:13:38;3;2;
38687;PMS5003;24444;53.216;-6.664;2022-11-18T04:16:06;3;1;
38687;PMS5003;24444;53.216;-6.664;2022-11-18T04:18:33;2;1;
38687;PMS5003;24444;53.216;-6.664;2022-11-18T04:21:00;2;2;
38687;PMS5003;24444;53.216;-6.664;2022-11-18T04:23:27;6;5;
38687;PMS5003;24444;53.216;-6.664;2022-11-18T04:25:54;6;2;
38687;PMS5003;24444;53.216;-6.664;2022-11-18T04:28:21;4;2;
38687;PMS5003;24444;53.216;-6.664;2022-11-18T04:30:48;2;2;
38687;PMS5003;24444;53.216;-6.664;2022-11-18T04:33:15;4;1;
38687;PMS5003;24444;53.216;-6.664;2022-11-18T04:35:45;5;1;
38687;PMS5003;24444;53.216;-6.664;2022-11-18T04:38:12;2;1;
38687;PMS5003;24444;53.216;-6.664;2022-11-18T04:40:39;4;4;
38687;PMS5003;24444;53.216;-6.664;2022-11-18T04:43:06;0;0;
38687;PMS5003;24444;53.216;-6.664;2022-11-18T04:45:33;2;1;
38687;PMS5003;24444;53.216;-6.664;2022-11-18T04:48:00;1;1;
38687;PMS5003;24444;53.216;-6.664;2022-11-18T04:50:27;3;0;
38687;PMS5003;24444;53.216;-6.664;2022-11-18T04:52:54;2;2;
38687;PMS5003;24444;53.216;-6.664;2022-11-18T04:55:21;1;1;
38687;PMS5003;24444;53.216;-6.664;2022-11-18T04:57:48;2;1;
38687;PMS5003;24444;53.216;-6.664;2022-11-18T05:00:15;3;1;
38687;PMS5003;24444;53.216;-6.664;2022-11-18T05:02:43;1;0;
38687;PMS5003;24444;53.216;-6.664;2022-11-18T05:05:10;1;0;
38687;PMS5003;24444;53.216;-6.664;2022-11-18T05:07:37;3;0;
38687;PMS5003;24444;53.216;-6.664;2022-11-18T05:10:04;2;1;
38687;PMS5003;24444;53.216;-6.664;2022-11-18T05:12:32;3;3;
38687;PMS5003;24444;53.216;-6.664;2022-11-18T05:15:00;1;1;
38687;PMS5003;24444;53.216;-6.664;2022-11-18T05:17:28;2;1;
38687;PMS5003;24444;53.216;-6.664;2022-11-18T05:19:55;1;1;
38687;PMS5003;24444;53.216;-6.664;2022-11-18T05:22:23;4;2;
38687;PMS5003;24444;53.216;-6.664;2022-11-18T05:24:50;3;2;
38687;PMS5003;24444;53.216;-6.664;2022-11-18T05:27:17;5;2;
38687;PMS5003;24444;53.216;-6.664;2022-11-18T05:29:44;2;1;
38687;PMS5003;24444;53.216;-6.664;2022-11-18T05:32:11;3;2;
38687;PMS5003;24444;53.216;-6.664;2022-11-18T05:34:39;3;3;
38687;PMS5003;24444;53.216;-6.664;2022-11-18T05:37:07;2;1;
38687;PMS5003;24444;53.216;-6.664;2022-11-18T05:39:35;1;1;
38687;PMS5003;24444;53.216;-6.664;2022-11-18T05:42:03;2;1;
38687;PMS5003;24444;53.216;-6.664;2022-11-18T05:44:31;2;1;
38687;PMS5003;24444;53.216;-6.664;2022-11-18T05:46:58;2;2;
38687;PMS5003;24444;53.216;-6.664;2022-11-18T05:49:25;5;3;
38687;PMS5003;24444;53.216;-6.664;2022-11-18T05:51:52;2;1;
38687;PMS5003;24444;53.216;-6.664;2022-11-18T05:54:19;2;1;
38687;PMS5003;24444;53.216;-6.664;2022-11-18T05:56:47;1;1;
38687;PMS5003;24444;53.216;-6.664;2022-11-18T05:59:15;6;2;
38687;PMS5003;24444;53.216;-6.664;2022-11-18T06:01:42;3;3;
38687;PMS5003;24444;53.216;-6.664;2022-11-18T06:04:14;2;2;
38687;PMS5003;24444;53.216;-6.664;2022-11-18T06:06:46;10;5;
38687;PMS5003;24444;53.216;-6.664;2022-11-18T06:09:16;2;2;
38687;PMS5003;24444;53.216;-6.664;2022-11-18T06:11:48;4;1;
38687;PMS5003;24444;53.216;-6.664;2022-11-18T06:14:19;2;2;
38687;PMS5003;24444;53.216;-6.664;2022-11-18T06:16:52;6;2;
38687;PMS5003;24444;53.216;-6.664;2022-11-18T06:19:22;3;2;
38687;PMS5003;24444;53.216;-6.664;2022-11-18T06:21:50;6;3;
38687;PMS5003;24444;53.216;-6.664;2022-11-18T06:24:17;1;1;
38687;PMS5003;24444;53.216;-6.664;2022-11-18T06:26:45;2;2;
38687;PMS5003;24444;53.216;-6.664;2022-11-18T06:29:12;1;1;
38687;PMS5003;24444;53.216;-6.664;2022-11-18T06:31:43;2;1;
38687;PMS5003;24444;53.216;-6.664;2022-11-18T06:34:10;3;2;
38687;PMS5003;24444;53.216;-6.664;2022-11-18T06:36:38;7;5;
38687;PMS5003;24444;53.216;-6.664;2022-11-18T06:39:06;2;1;
38687;PMS5003;24444;53.216;-6.664;2022-11-18T06:41:33;4;2;
38687;PMS5003;24444;53.216;-6.664;2022-11-18T06:44:00;4;1;
38687;PMS5003;24444;53.216;-6.664;2022-11-18T06:46:27;2;2;
38687;PMS5003;24444;53.216;-6.664;2022-11-18T06:48:55;3;2;
38687;PMS5003;24444;53.216;-6.664;2022-11-18T06:51:23;7;2;
38687;PMS5003;24444;53.216;-6.664;2022-11-18T06:53:51;3;3;
38687;PMS5003;24444;53.216;-6.664;2022-11-18T06:56:19;2;1;
38687;PMS5003;24444;53.216;-6.664;2022-11-18T06:58:51;2;2;
38687;PMS5003;24444;53.216;-6.664;2022-11-18T07:01:21;3;2;
38687;PMS5003;24444;53.216;-6.664;2022-11-18T07:03:50;3;1;
38687;PMS5003;24444;53.216;-6.664;2022-11-18T07:06:18;2;1;
38687;PMS5003;24444;53.216;-6.664;2022-11-18T07:08:48;1;1;
38687;PMS5003;24444;53.216;-6.664;2022-11-18T07:11:17;3;2;
38687;PMS5003;24444;53.216;-6.664;2022-11-18T07:13:47;2;1;
38687;PMS5003;24444;53.216;-6.664;2022-11-18T07:16:15;2;1;
38687;PMS5003;24444;53.216;-6.664;2022-11-18T07:18:45;6;1;
38687;PMS5003;24444;53.216;-6.664;2022-11-18T07:21:13;4;2;
38687;PMS5003;24444;53.216;-6.664;2022-11-18T07:23:42;2;2;
38687;PMS5003;24444;53.216;-6.664;2022-11-18T07:26:09;3;2;
38687;PMS5003;24444;53.216;-6.664;2022-11-18T07:28:36;3;3;
38687;PMS5003;24444;53.216;-6.664;2022-11-18T07:31:04;2;2;
38687;PMS5003;24444;53.216;-6.664;2022-11-18T07:33:33;2;2;
38687;PMS5003;24444;53.216;-6.664;2022-11-18T07:36:02;6;2;
38687;PMS5003;24444;53.216;-6.664;2022-11-18T07:38:32;4;3;
38687;PMS5003;24444;53.216;-6.664;2022-11-18T07:41:03;2;1;
38687;PMS5003;24444;53.216;-6.664;2022-11-18T07:43:31;2;1;
38687;PMS5003;24444;53.216;-6.664;2022-11-18T07:46:07;3;2;
38687;PMS5003;24444;53.216;-6.664;2022-11-18T07:48:36;5;4;
38687;PMS5003;24444;53.216;-6.664;2022-11-18T07:51:03;4;3;
38687;PMS5003;24444;53.216;-6.664;2022-11-18T07:53:31;6;2;
38687;PMS5003;24444;53.216;-6.664;2022-11-18T07:56:00;3;3;
38687;PMS5003;24444;53.216;-6.664;2022-11-18T07:58:27;5;2;
38687;PMS5003;24444;53.216;-6.664;2022-11-18T08:00:54;2;2;
38687;PMS5003;24444;53.216;-6.664;2022-11-18T08:03:24;4;2;
38687;PMS5003;24444;53.216;-6.664;2022-11-18T08:05:51;4;2;
38687;PMS5003;24444;53.216;-6.664;2022-11-18T08:08:19;1;1;
38687;PMS5003;24444;53.216;-6.664;2022-11-18T08:10:46;3;2;
38687;PMS5003;24444;53.216;-6.664;2022-11-18T08:13:13;4;3;
38687;PMS5003;24444;53.216;-6.664;2022-11-18T08:15:40;5;3;
38687;PMS5003;24444;53.216;-6.664;2022-11-18T08:18:08;1;1;
38687;PMS5003;24444;53.216;-6.664;2022-11-18T08:20:40;1;1;
38687;PMS5003;24444;53.216;-6.664;2022-11-18T08:23:08;2;2;
38687;PMS5003;24444;53.216;-6.664;2022-11-18T08:25:36;4;3;
38687;PMS5003;24444;53.216;-6.664;2022-11-18T08:28:03;5;2;
38687;PMS5003;24444;53.216;-6.664;2022-11-18T08:30:31;2;2;
38687;PMS5003;24444;53.216;-6.664;2022-11-18T08:32:59;4;2;
38687;PMS5003;24444;53.216;-6.664;2022-11-18T08:35:27;4;4;
38687;PMS5003;24444;53.216;-6.664;2022-11-18T08:37:55;4;2;
38687;PMS5003;24444;53.216;-6.664;2022-11-18T08:40:23;3;1;
38687;PMS5003;24444;53.216;-6.664;2022-11-18T08:42:51;1;1;
38687;PMS5003;24444;53.216;-6.664;2022-11-18T08:45:18;0;0;
38687;PMS5003;24444;53.216;-6.664;2022-11-18T08:47:45;2;2;
38687;PMS5003;24444;53.216;-6.664;2022-11-18T08:50:12;3;3;
38687;PMS5003;24444;53.216;-6.664;2022-11-18T08:52:40;4;3;
38687;PMS5003;24444;53.216;-6.664;2022-11-18T08:55:07;5;4;
38687;PMS5003;24444;53.216;-6.664;2022-11-18T08:57:35;5;3;
38687;PMS5003;24444;53.216;-6.664;2022-11-18T09:00:04;2;1;
38687;PMS5003;24444;53.216;-6.664;2022-11-18T09:02:32;3;2;
38687;PMS5003;24444;53.216;-6.664;2022-11-18T09:05:00;2;2;
38687;PMS5003;24444;53.216;-6.664;2022-11-18T09:07:28;6;3;
38687;PMS5003;24444;53.216;-6.664;2022-11-18T09:09:55;2;1;
38687;PMS5003;24444;53.216;-6.664;2022-11-18T09:12:23;5;4;
38687;PMS5003;24444;53.216;-6.664;2022-11-18T09:14:50;5;3;
38687;PMS5003;24444;53.216;-6.664;2022-11-18T09:17:18;1;1;
38687;PMS5003;24444;53.216;-6.664;2022-11-18T09:19:45;3;2;
38687;PMS5003;24444;53.216;-6.664;2022-11-18T09:22:12;3;2;
38687;PMS5003;24444;53.216;-6.664;2022-11-18T09:24:40;3;1;
38687;PMS5003;24444;53.216;-6.664;2022-11-18T09:27:07;7;4;
38687;PMS5003;24444;53.216;-6.664;2022-11-18T09:29:34;4;2;
38687;PMS5003;24444;53.216;-6.664;2022-11-18T09:32:02;3;3;
38687;PMS5003;24444;53.216;-6.664;2022-11-18T09:34:29;7;5;
38687;PMS5003;24444;53.216;-6.664;2022-11-18T09:36:59;5;4;
38687;PMS5003;24444;53.216;-6.664;2022-11-18T09:39:28;10;8;
38687;PMS5003;24444;53.216;-6.664;2022-11-18T09:41:59;10;9;
38687;PMS5003;24444;53.216;-6.664;2022-11-18T09:44:54;4;4;
38687;PMS5003;24444;53.216;-6.664;2022-11-18T09:47:33;14;11;
38687;PMS5003;24444;53.216;-6.664;2022-11-18T09:50:02;26;21;
38687;PMS5003;24444;53.216;-6.664;2022-11-18T09:52:35;10;7;
38687;PMS5003;24444;53.216;-6.664;2022-11-18T09:55:07;16;15;
38687;PMS5003;24444;53.216;-6.664;2022-11-18T09:57:39;7;6;
38687;PMS5003;24444;53.216;-6.664;2022-11-18T10:00:12;23;21;
38687;PMS5003;24444;53.216;-6.664;2022-11-18T10:02:46;18;16;
38687;PMS5003;24444;53.216;-6.664;2022-11-18T10:05:23;10;4;
38687;PMS5003;24444;53.216;-6.664;2022-11-18T10:08:02;6;5;
38687;PMS5003;24444;53.216;-6.664;2022-11-18T10:10:40;9;8;
38687;PMS5003;24444;53.216;-6.664;2022-11-18T10:13:21;8;6;
38687;PMS5003;24444;53.216;-6.664;2022-11-18T10:15:59;5;4;
38687;PMS5003;24444;53.216;-6.664;2022-11-18T10:18:39;11;6;
38687;PMS5003;24444;53.216;-6.664;2022-11-18T10:21:14;2;2;
38687;PMS5003;24444;53.216;-6.664;2022-11-18T10:23:50;7;5;
38687;PMS5003;24444;53.216;-6.664;2022-11-18T10:26:32;7;5;
38687;PMS5003;24444;53.216;-6.664;2022-11-18T10:29:00;5;3;
38687;PMS5003;24444;53.216;-6.664;2022-11-18T10:31:28;10;8;
38687;PMS5003;24444;53.216;-6.664;2022-11-18T10:33:59;12;8;
38687;PMS5003;24444;53.216;-6.664;2022-11-18T10:36:27;11;11;
38687;PMS5003;24444;53.216;-6.664;2022-11-18T10:39:12;8;8;
38687;PMS5003;24444;53.216;-6.664;2022-11-18T10:41:42;4;2;
38687;PMS5003;24444;53.216;-6.664;2022-11-18T10:44:33;16;14;
38687;PMS5003;24444;53.216;-6.664;2022-11-18T10:47:34;8;6;
38687;PMS5003;24444;53.216;-6.664;2022-11-18T10:50:09;5;4;
38687;PMS5003;24444;53.216;-6.664;2022-11-18T10:52:54;21;16;
38687;PMS5003;24444;53.216;-6.664;2022-11-18T10:55:23;11;8;
38687;PMS5003;24444;53.216;-6.664;2022-11-18T10:57:53;8;6;
38687;PMS5003;24444;53.216;-6.664;2022-11-18T11:00:41;6;4;
38687;PMS5003;24444;53.216;-6.664;2022-11-18T11:03:24;5;4;
38687;PMS5003;24444;53.216;-6.664;2022-11-18T11:06:28;8;4;
38687;PMS5003;24444;53.216;-6.664;2022-11-18T11:09:01;5;2;
38687;PMS5003;24444;53.216;-6.664;2022-11-18T11:11:32;7;6;
38687;PMS5003;24444;53.216;-6.664;2022-11-18T11:14:18;2;2;
38687;PMS5003;24444;53.216;-6.664;2022-11-18T11:16:52;8;7;
38687;PMS5003;24444;53.216;-6.664;2022-11-18T11:19:25;3;3;
38687;PMS5003;24444;53.216;-6.664;2022-11-18T11:22:00;3;3;
38687;PMS5003;24444;53.216;-6.664;2022-11-18T11:24:27;4;4;
38687;PMS5003;24444;53.216;-6.664;2022-11-18T11:26:59;6;6;
38687;PMS5003;24444;53.216;-6.664;2022-11-18T11:29:35;3;3;
38687;PMS5003;24444;53.216;-6.664;2022-11-18T11:32:23;1;1;
38687;PMS5003;24444;53.216;-6.664;2022-11-18T11:34:57;5;5;
38687;PMS5003;24444;53.216;-6.664;2022-11-18T11:37:34;2;2;
38687;PMS5003;24444;53.216;-6.664;2022-11-18T11:40:16;8;8;
38687;PMS5003;24444;53.216;-6.664;2022-11-18T11:42:53;4;4;
38687;PMS5003;24444;53.216;-6.664;2022-11-18T11:45:34;4;3;
38687;PMS5003;24444;53.216;-6.664;2022-11-18T11:48:13;9;5;
38687;PMS5003;24444;53.216;-6.664;2022-11-18T11:50:51;2;1;
38687;PMS5003;24444;53.216;-6.664;2022-11-18T11:53:24;3;3;
38687;PMS5003;24444;53.216;-6.664;2022-11-18T11:56:08;7;4;
38687;PMS5003;24444;53.216;-6.664;2022-11-18T11:58:48;4;3;
38687;PMS5003;24444;53.216;-6.664;2022-11-18T12:01:33;8;7;
38687;PMS5003;24444;53.216;-6.664;2022-11-18T12:04:10;6;5;
38687;PMS5003;24444;53.216;-6.664;2022-11-18T12:06:48;7;5;
38687;PMS5003;24444;53.216;-6.664;2022-11-18T12:09:20;3;3;
38687;PMS5003;24444;53.216;-6.664;2022-11-18T12:12:00;7;6;
38687;PMS5003;24444;53.216;-6.664;2022-11-18T12:14:34;6;6;
38687;PMS5003;24444;53.216;-6.664;2022-11-18T12:17:13;9;7;
38687;PMS5003;24444;53.216;-6.664;2022-11-18T12:19:44;6;5;
38687;PMS5003;24444;53.216;-6.664;2022-11-18T12:22:12;4;3;
38687;PMS5003;24444;53.216;-6.664;2022-11-18T12:24:40;4;3;
38687;PMS5003;24444;53.216;-6.664;2022-11-18T12:27:12;8;5;
38687;PMS5003;24444;53.216;-6.664;2022-11-18T12:30:20;3;3;
38687;PMS5003;24444;53.216;-6.664;2022-11-18T12:32:48;4;3;
38687;PMS5003;24444;53.216;-6.664;2022-11-18T12:35:23;6;4;
38687;PMS5003;24444;53.216;-6.664;2022-11-18T12:37:57;7;6;
38687;PMS5003;24444;53.216;-6.664;2022-11-18T12:40:42;6;5;
38687;PMS5003;24444;53.216;-6.664;2022-11-18T12:44:17;3;3;
38687;PMS5003;24444;53.216;-6.664;2022-11-18T12:46:50;6;4;
38687;PMS5003;24444;53.216;-6.664;2022-11-18T12:50:30;4;4;
38687;PMS5003;24444;53.216;-6.664;2022-11-18T12:53:26;5;5;
38687;PMS5003;24444;53.216;-6.664;2022-11-18T12:55:58;7;5;
38687;PMS5003;24444;53.216;-6.664;2022-11-18T12:58:26;5;4;
38687;PMS5003;24444;53.216;-6.664;2022-11-18T13:01:03;6;6;
38687;PMS5003;24444;53.216;-6.664;2022-11-18T13:03:32;6;4;
38687;PMS5003;24444;53.216;-6.664;2022-11-18T13:06:02;7;7;
38687;PMS5003;24444;53.216;-6.664;2022-11-18T13:08:38;10;10;
38687;PMS5003;24444;53.216;-6.664;2022-11-18T13:11:08;4;4;
38687;PMS5003;24444;53.216;-6.664;2022-11-18T13:13:41;5;4;
38687;PMS5003;24444;53.216;-6.664;2022-11-18T13:16:13;7;7;
38687;PMS5003;24444;53.216;-6.664;2022-11-18T13:18:46;4;4;
38687;PMS5003;24444;53.216;-6.664;2022-11-18T13:21:19;13;9;
38687;PMS5003;24444;53.216;-6.664;2022-11-18T13:23:48;7;7;
38687;PMS5003;24444;53.216;-6.664;2022-11-18T13:26:17;8;7;
38687;PMS5003;24444;53.216;-6.664;2022-11-18T13:28:52;10;8;
38687;PMS5003;24444;53.216;-6.664;2022-11-18T13:31:31;7;6;
38687;PMS5003;24444;53.216;-6.664;2022-11-18T13:34:09;6;5;
38687;PMS5003;24444;53.216;-6.664;2022-11-18T13:36:43;8;6;
38687;PMS5003;24444;53.216;-6.664;2022-11-18T13:39:17;4;4;
38687;PMS5003;24444;53.216;-6.664;2022-11-18T13:41:47;7;6;
38687;PMS5003;24444;53.216;-6.664;2022-11-18T13:44:25;4;3;
38687;PMS5003;24444;53.216;-6.664;2022-11-18T13:46:55;6;5;
38687;PMS5003;24444;53.216;-6.664;2022-11-18T13:49:43;8;6;
38687;PMS5003;24444;53.216;-6.664;2022-11-18T13:52:16;4;4;
38687;PMS5003;24444;53.216;-6.664;2022-11-18T13:54:47;2;2;
38687;PMS5003;24444;53.216;-6.664;2022-11-18T13:57:17;8;7;
38687;PMS5003;24444;53.216;-6.664;2022-11-18T13:59:46;10;9;
38687;PMS5003;24444;53.216;-6.664;2022-11-18T14:02:15;9;7;
38687;PMS5003;24444;53.216;-6.664;2022-11-18T14:04:47;6;6;
38687;PMS5003;24444;53.216;-6.664;2022-11-18T14:07:34;4;3;
38687;PMS5003;24444;53.216;-6.664;2022-11-18T14:10:03;4;3;
38687;PMS5003;24444;53.216;-6.664;2022-11-18T14:12:32;4;4;
38687;PMS5003;24444;53.216;-6.664;2022-11-18T14:15:20;7;6;
38687;PMS5003;24444;53.216;-6.664;2022-11-18T14:17:58;9;9;
38687;PMS5003;24444;53.216;-6.664;2022-11-18T14:20:28;4;4;
38687;PMS5003;24444;53.216;-6.664;2022-11-18T14:22:57;8;3;
38687;PMS5003;24444;53.216;-6.664;2022-11-18T14:25:26;4;3;
38687;PMS5003;24444;53.216;-6.664;2022-11-18T14:27:57;6;4;
38687;PMS5003;24444;53.216;-6.664;2022-11-18T14:30:38;5;4;
38687;PMS5003;24444;53.216;-6.664;2022-11-18T14:33:14;2;2;
38687;PMS5003;24444;53.216;-6.664;2022-11-18T14:35:55;5;4;
38687;PMS5003;24444;53.216;-6.664;2022-11-18T14:38:27;6;5;
38687;PMS5003;24444;53.216;-6.664;2022-11-18T14:40:58;7;5;
38687;PMS5003;24444;53.216;-6.664;2022-11-18T14:43:26;5;3;
38687;PMS5003;24444;53.216;-6.664;2022-11-18T14:45:56;5;4;
38687;PMS5003;24444;53.216;-6.664;2022-11-18T14:48:25;5;4;
38687;PMS5003;24444;53.216;-6.664;2022-11-18T14:50:53;6;5;
38687;PMS5003;24444;53.216;-6.664;2022-11-18T14:53:21;7;5;
38687;PMS5003;24444;53.216;-6.664;2022-11-18T14:55:48;7;5;
38687;PMS5003;24444;53.216;-6.664;2022-11-18T14:58:17;6;5;
38687;PMS5003;24444;53.216;-6.664;2022-11-18T15:00:46;2;2;
38687;PMS5003;24444;53.216;-6.664;2022-11-18T15:03:14;8;6;
38687;PMS5003;24444;53.216;-6.664;2022-11-18T15:05:42;8;6;
38687;PMS5003;24444;53.216;-6.664;2022-11-18T15:08:09;6;4;
38687;PMS5003;24444;53.216;-6.664;2022-11-18T15:10:36;14;9;
38687;PMS5003;24444;53.216;-6.664;2022-11-18T15:13:03;10;8;
38687;PMS5003;24444;53.216;-6.664;2022-11-18T15:15:32;6;5;
38687;PMS5003;24444;53.216;-6.664;2022-11-18T15:17:58;7;5;
38687;PMS5003;24444;53.216;-6.664;2022-11-18T15:20:26;6;5;
38687;PMS5003;24444;53.216;-6.664;2022-11-18T15:22:54;9;9;
38687;PMS5003;24444;53.216;-6.664;2022-11-18T15:25:21;10;8;
38687;PMS5003;24444;53.216;-6.664;2022-11-18T15:27:48;10;7;
38687;PMS5003;24444;53.216;-6.664;2022-11-18T15:30:15;8;7;
38687;PMS5003;24444;53.216;-6.664;2022-11-18T15:32:43;9;9;
38687;PMS5003;24444;53.216;-6.664;2022-11-18T15:35:11;13;10;
38687;PMS5003;24444;53.216;-6.664;2022-11-18T15:37:39;5;4;
38687;PMS5003;24444;53.216;-6.664;2022-11-18T15:40:07;8;6;
38687;PMS5003;24444;53.216;-6.664;2022-11-18T15:42:35;13;9;
38687;PMS5003;24444;53.216;-6.664;2022-11-18T15:45:03;5;5;
38687;PMS5003;24444;53.216;-6.664;2022-11-18T15:47:31;9;9;
38687;PMS5003;24444;53.216;-6.664;2022-11-18T15:49:59;7;6;
38687;PMS5003;24444;53.216;-6.664;2022-11-18T15:52:26;16;15;
38687;PMS5003;24444;53.216;-6.664;2022-11-18T15:54:53;12;12;
38687;PMS5003;24444;53.216;-6.664;2022-11-18T15:57:21;21;20;
38687;PMS5003;24444;53.216;-6.664;2022-11-18T15:59:49;18;16;
38687;PMS5003;24444;53.216;-6.664;2022-11-18T16:02:17;19;17;
38687;PMS5003;24444;53.216;-6.664;2022-11-18T16:04:44;16;14;
38687;PMS5003;24444;53.216;-6.664;2022-11-18T16:07:12;17;14;
38687;PMS5003;24444;53.216;-6.664;2022-11-18T16:09:39;18;15;
38687;PMS5003;24444;53.216;-6.664;2022-11-18T16:12:07;11;11;
38687;PMS5003;24444;53.216;-6.664;2022-11-18T16:14:35;11;11;
38687;PMS5003;24444;53.216;-6.664;2022-11-18T16:17:02;10;9;
38687;PMS5003;24444;53.216;-6.664;2022-11-18T16:19:29;9;9;
38687;PMS5003;24444;53.216;-6.664;2022-11-18T16:21:57;10;9;
38687;PMS5003;24444;53.216;-6.664;2022-11-18T16:24:25;10;10;
38687;PMS5003;24444;53.216;-6.664;2022-11-18T16:26:53;11;10;
38687;PMS5003;24444;53.216;-6.664;2022-11-18T16:29:21;11;10;
38687;PMS5003;24444;53.216;-6.664;2022-11-18T16:31:49;9;9;
38687;PMS5003;24444;53.216;-6.664;2022-11-18T16:34:17;19;17;
38687;PMS5003;24444;53.216;-6.664;2022-11-18T16:36:46;19;16;
38687;PMS5003;24444;53.216;-6.664;2022-11-18T16:39:15;20;19;
38687;PMS5003;24444;53.216;-6.664;2022-11-18T16:41:43;29;28;
38687;PMS5003;24444;53.216;-6.664;2022-11-18T16:44:12;21;17;
38687;PMS5003;24444;53.216;-6.664;2022-11-18T16:46:43;24;21;
38687;PMS5003;24444;53.216;-6.664;2022-11-18T16:49:13;19;19;
38687;PMS5003;24444;53.216;-6.664;2022-11-18T16:51:42;18;16;
38687;PMS5003;24444;53.216;-6.664;2022-11-18T16:54:14;15;15;
38687;PMS5003;24444;53.216;-6.664;2022-11-18T16:56:42;23;17;